Phoenix, Arizona
Traffic Map
Current Weather Conditions
Phoenix, Arizona
Clear
Clear
92°
Feels Like: 92°
Wind Chill: 92° Ceiling: Unl
Heat Index: 92° Visibility: 10mi
Dew Point: 49° Wind: 3mph
Humidity: 23% Direction: 260° (W)
Pressure: 29.85in Gusts: 0mph
Raw Report DataKPHX 240351Z 26003KT 10SM CLR 33/09 A2985 RMK AO2 SLP086 T03330094
Traffic Incident Summary
Active as of:
Severity:
Category:
InformationThere was an issue retrieving the traffic information for this location. Please try a different location or try again shortly.
Advertisements
Track Severe Weather on mobile